Latest Weather Observations for Adelaide Airport

IDS60901

Issued at 3:31 pm CST Monday 25 July 2016 (issued every 10 minutes, with the page automatically refreshed every 10 minutes)

About weather observations | Map of Adelaide area stations | Latest observations for Adelaide area | Other Formats
Station Details ID: 023034 Name: ADELAIDE AIRPORT Lat: -34.95 Lon: 138.52 Height: 2.0 m
Data from the previous 72 hours. | See also: Recent months at Adelaide Airport
Date/Time
CST
Temp
°C
App
Temp
°C
Dew
Point
°C
Rel
Hum
%
Delta-T
°C
Wind Press
QNH
hPa
Press
MSL
hPa
Rain since
9am
mm
Dir  Spd
km/h
Gust
km/h
Spd
kts
Gust
kts
25/03:16pm 12.0 6.1 11.2 95 0.4 NW 33 44 18 24 1012.4 1012.4 3.4
25/03:07pm 12.2 5.2 11.1 93 0.6 NW 39 50 21 27 1012.0 1012.0 2.4
25/03:00pm 12.3 4.8 10.8 90 0.8 NNW 41 54 22 29 1011.7 1011.7 1.0
25/02:51pm 12.8 5.5 10.3 85 1.3 NNW 39 56 21 30 1011.6 1011.6 0.2
25/02:30pm 12.9 4.8 10.2 84 1.4 NW 43 54 23 29 1011.9 1011.9 0.2
25/02:14pm 13.2 6.4 10.5 84 1.4 NNW 37 50 20 27 1012.2 1012.2 0.2
25/02:00pm 12.5 6.4 10.6 88 1.0 NNW 33 43 18 23 1012.4 1012.4 0.2
25/01:30pm 12.7 5.7 9.8 82 1.5 NNW 37 56 20 30 1012.7 1012.7 0.0
25/01:25pm 12.6 5.2 9.9 83 1.4 NNW 39 50 21 27 1012.7 1012.7 0.0
25/01:00pm 13.0 6.7 9.0 77 2.0 NNW 32 43 17 23 1013.1 1013.1 0.0
25/12:30pm 12.7 5.8 8.7 76 2.0 NNW 35 50 19 27 1013.8 1013.8 0.0
25/12:00pm 12.4 5.5 8.8 79 1.8 NNW 35 52 19 28 1014.2 1014.2 0.0
25/11:30am 12.2 5.9 9.0 81 1.6 NNW 32 46 17 25 1014.6 1014.6 0.0
25/11:05am 12.1 5.8 8.9 81 1.6 NNW 32 54 17 29 1014.8 1014.8 0.0
25/11:00am 12.3 6.0 8.9 80 1.7 NNW 32 43 17 23 1014.8 1014.8 0.0
25/10:30am 12.0 5.0 8.3 78 1.8 NNW 35 46 19 25 1015.2 1015.2 0.0
25/10:00am 12.0 5.4 8.6 80 1.7 NNW 33 46 18 25 1015.2 1015.2 0.0
25/09:30am 12.3 5.9 8.5 77 1.9 NNW 32 41 17 22 1015.7 1015.7 0.0
25/09:00am 12.0 5.5 8.3 78 1.8 NW 32 39 17 21 1015.4 1015.4 7.6
25/08:30am 11.8 5.8 8.6 81 1.6 NW 30 39 16 21 1015.3 1015.3 7.6
25/08:00am 11.7 5.6 8.2 79 1.7 NW 30 37 16 20 1015.2 1015.2 7.6
25/07:30am 11.6 6.5 7.7 77 1.9 NW 24 30 13 16 1015.0 1015.0 7.6
25/07:00am 11.6 6.7 8.3 80 1.6 NW 24 30 13 16 1014.9 1014.9 7.6
25/06:30am 11.4 6.7 7.9 79 1.7 NW 22 28 12 15 1015.0 1015.0 7.6
25/06:00am 11.4 7.0 7.5 77 1.9 WNW 20 30 11 16 1015.0 1015.0 7.6
25/05:30am 11.1 6.0 7.8 80 1.6 WNW 24 30 13 16 1014.8 1014.8 7.6
25/05:00am 11.4 5.0 7.0 74 2.1 W 30 37 16 20 1014.6 1014.6 7.6
25/04:30am 11.1 5.0 6.7 74 2.1 W 28 35 15 19 1014.6 1014.6 7.6
25/04:00am 10.9 5.6 6.9 76 1.9 W 24 30 13 16 1014.7 1014.7 7.6
25/03:30am 10.8 5.3 7.5 80 1.6 W 26 33 14 18 1015.0 1015.0 7.6
25/03:00am 10.0 4.2 8.1 88 0.9 W 28 37 15 20 1014.8 1014.8 7.6
25/02:48am 9.9 4.0 7.6 85 1.1 W 28 54 15 29 1015.1 1015.1 7.4
25/02:30am 11.2 6.2 7.9 80 1.6 W 24 32 13 17 1014.9 1014.9 7.2
25/02:00am 11.8 4.7 5.3 64 3.0 WSW 32 43 17 23 1014.8 1014.8 7.2
25/01:30am 11.8 3.7 5.3 64 3.0 WSW 37 46 20 25 1014.7 1014.7 7.2
25/01:00am 11.4 3.8 7.7 78 1.8 WSW 37 52 20 28 1014.5 1014.5 7.2
25/12:53am 11.7 4.7 5.9 67 2.7 W 32 52 17 28 1014.4 1014.4 7.2
25/12:30am 10.9 4.1 7.1 77 1.8 W 32 44 17 24 1014.2 1014.2 7.2
25/12:03am 10.6 3.2 8.3 86 1.1 W 37 56 20 30 1014.0 1014.0 7.2
25/12:00am 10.5 2.4 8.5 87 1.0 W 41 56 22 30 1014.0 1014.0 7.2
 
Date/Time
CST
Temp
°C
App
Temp
°C
Dew
Point
°C
Rel
Hum
%
Delta-T
°C
Wind Press
QNH
hPa
Press
MSL
hPa
Rain since
9am
mm
Dir  Spd
km/h
Gust
km/h
Spd
kts
Gust
kts
24/11:47pm 10.8 4.3 8.3 84 1.2 W 32 41 17 22 1014.0 1014.0 6.6
24/11:30pm 10.0 2.8 7.7 86 1.1 W 35 52 19 28 1013.7 1013.7 6.2
24/11:19pm 10.4 3.6 7.9 84 1.2 W 33 59 18 32 1013.8 1013.8 6.0
24/11:00pm 10.1 1.3 7.4 83 1.3 WSW 43 63 23 34 1013.5 1013.5 5.4
24/10:53pm 10.2 1.5 7.9 86 1.1 W 43 63 23 34 1013.5 1013.5 5.0
24/10:50pm 10.7 3.4 7.4 80 1.6 W 35 57 19 31 1013.4 1013.4 4.8
24/10:30pm 10.0 1.9 7.0 81 1.4 WSW 39 59 21 32 1013.2 1013.2 4.8
24/10:18pm 10.3 0.8 6.7 78 1.7 WSW 46 67 25 36 1013.2 1013.2 4.2
24/10:00pm 11.7 3.0 6.2 69 2.6 W 41 54 22 29 1012.7 1012.7 4.2
24/09:31pm 11.9 2.7 5.4 64 3.0 W 43 61 23 33 1012.3 1012.3 4.2
24/09:30pm 11.9 3.1 5.7 66 2.9 W 41 52 22 28 1012.3 1012.3 4.2
24/09:00pm 11.9 3.6 5.9 66 2.8 W 39 52 21 28 1012.0 1012.0 4.2
24/08:35pm 11.9 3.8 6.9 71 2.4 W 39 57 21 31 1011.7 1011.7 4.2
24/08:30pm 11.9 3.8 6.9 71 2.4 W 39 50 21 27 1011.7 1011.7 4.2
24/08:27pm 11.8 3.3 7.0 72 2.3 W 41 59 22 32 1011.7 1011.7 4.2
24/08:00pm 11.8 2.0 7.0 72 2.3 W 48 63 26 34 1011.5 1011.5 4.2
24/07:42pm 11.9 2.9 7.1 72 2.3 W 44 63 24 34 1011.3 1011.3 4.2
24/07:30pm 11.9 2.2 7.3 73 2.2 W 48 61 26 33 1011.2 1011.2 4.2
24/07:22pm 11.9 3.4 7.1 72 2.3 W 41 61 22 33 1010.8 1010.8 4.2
24/07:00pm 11.7 2.8 7.8 77 1.9 W 44 56 24 30 1010.4 1010.4 4.2
24/06:30pm 11.6 2.3 7.7 77 1.9 W 46 59 25 32 1009.8 1009.8 4.0
24/06:00pm 11.6 1.1 7.5 76 2.0 W 52 72 28 39 1009.4 1009.4 4.0
24/05:30pm 11.8 1.6 7.0 72 2.3 W 50 69 27 37 1008.9 1008.9 3.8
24/05:08pm 12.7 3.1 6.2 64 3.1 WNW 46 67 25 36 1008.5 1008.5 3.8
24/05:00pm 12.5 2.9 6.4 66 2.9 WNW 46 63 25 34 1008.5 1008.5 3.8
24/04:30pm 12.4 2.3 5.5 63 3.2 WNW 48 65 26 35 1008.3 1008.3 3.8
24/04:12pm 11.6 2.9 7.5 76 2.0 WNW 43 69 23 37 1008.3 1008.3 3.8
24/04:00pm 12.2 4.1 6.8 69 2.6 WNW 39 54 21 29 1008.1 1008.1 3.6
24/03:30pm 12.8 2.8 4.5 57 3.8 WNW 46 69 25 37 1008.0 1008.0 3.6
24/03:00pm 12.7 3.3 5.2 60 3.5 WNW 44 57 24 31 1007.9 1007.9 3.6
24/02:30pm 12.4 4.8 5.8 64 3.1 WNW 35 52 19 28 1008.0 1008.0 3.6
24/02:00pm 11.8 2.1 4.0 59 3.5 WNW 44 61 24 33 1008.1 1008.1 3.6
24/01:52pm 11.3 2.9 5.7 68 2.6 WNW 39 57 21 31 1008.2 1008.2 3.6
24/01:30pm 12.0 2.6 2.6 52 4.1 W 41 52 22 28 1007.8 1007.8 3.6
24/01:17pm 10.1 -1.4 4.3 67 2.6 W 54 74 29 40 1007.8 1007.8 3.6
24/01:11pm 10.8 1.0 3.5 60 3.2 WNW 44 72 24 39 1008.1 1008.1 3.6
24/01:00pm 12.3 5.3 6.7 68 2.7 WNW 33 46 18 25 1008.0 1008.0 3.6
24/12:30pm 11.7 3.4 5.9 67 2.7 WNW 39 52 21 28 1008.1 1008.1 3.6
24/12:00pm 10.6 2.8 4.9 68 2.6 NW 35 46 19 25 1008.3 1008.3 3.6
24/11:30am 10.2 3.1 6.6 78 1.7 NW 33 48 18 26 1008.7 1008.7 3.6
24/11:26am 10.2 3.7 6.6 78 1.7 NW 30 48 16 26 1008.8 1008.8 3.6
24/11:00am 10.0 2.9 5.4 73 2.1 NW 32 43 17 23 1009.0 1009.0 3.6
24/10:30am 9.3 2.3 5.8 79 1.6 WNW 32 50 17 27 1008.7 1008.7 3.4
24/10:23am 8.6 3.3 6.7 88 0.9 WNW 24 33 13 18 1008.8 1008.8 3.4
24/10:06am 7.3 -1.1 5.5 88 0.8 W 39 61 21 33 1008.8 1008.8 3.0
24/10:00am 7.4 -2.4 5.1 85 1.0 NW 46 61 25 33 1008.7 1008.7 2.8
24/09:40am 9.8 1.4 7.5 85 1.1 NNW 41 59 22 32 1008.1 1008.1 1.0
24/09:30am 10.2 0.8 7.0 80 1.5 NNW 46 61 25 33 1008.1 1008.1 0.4
24/09:28am 10.2 0.8 7.0 80 1.5 NNW 46 61 25 33 1008.0 1008.0 0.4
24/09:17am 10.5 4.4 6.5 76 1.9 NNW 28 48 15 26 1007.9 1007.9 0.4
24/09:00am 10.6 4.4 6.1 74 2.1 N 28 44 15 24 1008.0 1008.0 0.6
24/08:30am 10.4 3.4 6.8 78 1.7 N 33 43 18 23 1008.2 1008.2 0.6
24/08:00am 10.1 3.2 6.5 78 1.7 N 32 39 17 21 1008.4 1008.4 0.6
24/07:45am 10.0 3.9 6.4 78 1.7 N 28 46 15 25 1008.4 1008.4 0.6
24/07:30am 9.7 3.5 6.3 79 1.6 N 28 37 15 20 1008.4 1008.4 0.6
24/07:00am 9.3 3.2 6.7 84 1.2 N 28 41 15 22 1008.6 1008.6 0.6
24/06:30am 8.8 2.6 6.0 82 1.3 N 28 35 15 19 1009.1 1009.1 0.4
24/06:00am 9.0 2.9 5.0 76 1.8 N 26 33 14 18 1009.1 1009.1 0.2
24/05:30am 8.5 3.1 4.7 77 1.7 N 22 30 12 16 1009.4 1009.4 0.2
24/05:00am 8.4 2.7 4.8 78 1.6 NNE 24 32 13 17 1009.7 1009.7 0.2
24/04:30am 8.1 2.8 4.9 80 1.4 NNE 22 28 12 15 1010.1 1010.1 0.2
24/04:00am 7.4 2.0 4.7 83 1.2 NNE 22 28 12 15 1010.4 1010.4 0.2
24/03:30am 7.4 3.0 4.9 84 1.1 NNE 17 20 9 11 1011.2 1011.2 0.2
24/03:00am 7.1 2.8 5.1 87 0.9 NNE 17 20 9 11 1011.5 1011.5 0.2
24/02:30am 6.9 2.5 4.8 86 0.9 NNE 17 19 9 10 1011.9 1011.9 0.2
24/02:00am 6.9 2.5 4.8 86 0.9 NNE 17 19 9 10 1012.4 1012.4 0.2
24/01:30am 6.9 2.6 5.1 88 0.8 NNE 17 19 9 10 1012.9 1012.9 0.2
24/01:00am 6.9 2.3 5.6 91 0.6 NNE 19 24 10 13 1013.4 1013.4 0.2
24/12:30am 6.9 2.7 5.6 91 0.6 NNE 17 20 9 11 1013.9 1013.9 0.2
24/12:00am 7.0 3.2 5.9 93 0.5 NE 15 17 8 9 1014.1 1014.1 0.2
 
Date/Time
CST
Temp
°C
App
Temp
°C
Dew
Point
°C
Rel
Hum
%
Delta-T
°C
Wind Press
QNH
hPa
Press
MSL
hPa
Rain since
9am
mm
Dir  Spd
km/h
Gust
km/h
Spd
kts
Gust
kts
23/11:30pm 7.3 3.5 6.0 91 0.6 NNE 15 19 8 10 1014.6 1014.6 0.2
23/11:00pm 7.8 3.7 6.0 88 0.8 NNE 17 19 9 10 1014.8 1014.8 0.2
23/10:30pm 8.3 4.2 6.3 87 0.9 NNE 17 24 9 13 1015.0 1015.0 0.2
23/10:00pm 8.7 4.6 6.3 85 1.1 N 17 20 9 11 1015.1 1015.1 0.2
23/09:30pm 9.0 5.6 5.9 81 1.4 N 13 17 7 9 1015.2 1015.2 0.2
23/09:00pm 9.5 6.4 5.5 76 1.8 N 11 13 6 7 1015.3 1015.3 0.2
23/08:30pm 10.1 6.6 5.5 73 2.1 NNW 13 17 7 9 1015.4 1015.4 0.2
23/08:00pm 9.9 6.8 5.5 74 2.0 NNW 11 15 6 8 1015.4 1015.4 0.2
23/07:30pm 10.7 7.9 5.0 68 2.6 N 9 11 5 6 1015.4 1015.4 0.2
23/07:00pm 10.7 7.0 4.7 66 2.7 NNW 13 15 7 8 1015.4 1015.4 0.2
23/06:30pm 10.3 6.9 5.7 73 2.1 NNW 13 17 7 9 1015.2 1015.2 0.2
23/06:00pm 10.6 7.5 5.6 71 2.3 NW 11 15 6 8 1015.2 1015.2 0.2
23/05:30pm 10.6 6.5 6.3 75 2.0 WNW 17 22 9 12 1015.1 1015.1 0.2
23/05:00pm 10.9 7.1 5.9 71 2.3 NW 15 22 8 12 1015.0 1015.0 0.2
23/04:30pm 11.1 7.1 4.9 65 2.8 WNW 15 20 8 11 1015.0 1015.0 0.2
23/04:00pm 11.7 7.2 6.2 69 2.6 WNW 19 26 10 14 1015.0 1015.0 0.2
23/03:30pm 10.3 6.1 7.6 83 1.3 SW 19 28 10 15 1015.1 1015.1 0.2
23/03:00pm 13.1 8.4 3.2 51 4.4 WNW 17 20 9 11 1014.9 1014.9 0.0
23/02:30pm 13.1 8.9 3.8 53 4.2 WNW 15 22 8 12 1014.9 1014.9 0.0
23/02:00pm 12.9 8.1 2.6 49 4.5 W 17 22 9 12 1014.8 1014.8 0.0
23/01:30pm 12.7 8.0 3.2 52 4.2 WSW 17 24 9 13 1014.8 1014.8 0.0
23/01:00pm 12.6 7.9 3.1 52 4.2 WSW 17 20 9 11 1014.9 1014.9 0.0
23/12:30pm 12.8 7.8 3.4 53 4.2 SW 19 24 10 13 1014.9 1014.9 0.0
23/12:00pm 12.5 7.4 3.2 53 4.1 SW 19 26 10 14 1015.1 1015.1 0.0
23/11:30am 12.7 6.7 3.2 52 4.2 SW 24 28 13 15 1015.4 1015.4 0.0
23/11:00am 12.5 7.1 2.4 50 4.4 SW 20 28 11 15 1015.3 1015.3 0.0
23/10:30am 12.1 8.0 4.1 58 3.6 SSW 15 22 8 12 1015.1 1015.1 0.0
23/10:00am 11.5 8.2 4.7 63 3.1 S 11 15 6 8 1014.9 1014.9 0.0
23/09:30am 12.2 7.8 4.8 60 3.4 SW 17 28 9 15 1014.5 1014.5 0.0
23/09:00am 11.1 6.2 5.2 67 2.7 SW 20 26 11 14 1014.1 1014.1 3.4
23/08:30am 11.1 5.9 5.7 69 2.5 SW 22 30 12 16 1013.6 1013.6 3.4
23/08:00am 10.7 6.4 5.2 69 2.5 SSW 17 26 9 14 1013.0 1013.0 3.4
23/07:30am 10.9 4.9 5.5 69 2.5 SSW 26 35 14 19 1012.6 1012.6 3.2
23/07:00am 10.6 5.8 5.6 71 2.3 SW 20 28 11 15 1012.0 1012.0 3.2
23/06:30am 10.9 5.0 5.7 70 2.4 SW 26 35 14 19 1011.5 1011.5 3.2
23/06:00am 10.9 5.6 5.2 68 2.6 SW 22 28 12 15 1011.2 1011.2 3.2
23/05:30am 11.2 4.4 5.3 67 2.7 SW 30 37 16 20 1010.8 1010.8 3.2
23/05:00am 11.3 4.7 5.9 69 2.5 SW 30 37 16 20 1010.4 1010.4 3.2
23/04:30am 11.3 5.0 5.7 68 2.6 SW 28 35 15 19 1009.8 1009.8 3.2
23/04:00am 11.3 5.0 5.9 69 2.5 WSW 28 37 15 20 1009.4 1009.4 3.2
23/03:30am 11.3 4.6 5.5 67 2.7 WSW 30 39 16 21 1009.2 1009.2 3.2
23/03:00am 11.4 4.4 5.8 68 2.6 SW 32 41 17 22 1009.4 1009.4 3.2
23/02:30am 11.4 5.1 5.8 68 2.6 SW 28 35 15 19 1009.3 1009.3 3.2
23/02:00am 11.4 5.0 5.3 66 2.8 SW 28 35 15 19 1009.2 1009.2 3.2
23/01:30am 11.6 4.9 5.8 67 2.7 SW 30 41 16 22 1008.8 1008.8 3.2
23/01:00am 11.8 3.1 5.8 66 2.8 WSW 41 52 22 28 1008.4 1008.4 3.2
23/12:39am 12.2 2.7 5.0 61 3.3 WSW 44 63 24 34 1008.1 1008.1 3.2
23/12:30am 12.1 2.6 4.9 61 3.3 WSW 44 57 24 31 1008.0 1008.0 3.2
23/12:16am 11.8 4.8 5.8 66 2.8 W 32 50 17 27 1007.9 1007.9 3.2
23/12:00am 11.6 4.1 6.3 70 2.5 W 35 46 19 25 1007.7 1007.7 3.2
 
Date/Time
CST
Temp
°C
App
Temp
°C
Dew
Point
°C
Rel
Hum
%
Delta-T
°C
Wind Press
QNH
hPa
Press
MSL
hPa
Rain since
9am
mm
Dir  Spd
km/h
Gust
km/h
Spd
kts
Gust
kts
22/11:30pm 12.2 3.2 4.8 60 3.4 W 41 56 22 30 1007.2 1007.2 3.0
22/11:13pm 12.1 3.0 3.9 57 3.7 W 41 59 22 32 1006.9 1006.9 3.0
22/11:00pm 11.9 3.5 5.4 64 3.0 W 39 52 21 28 1006.6 1006.6 3.0
22/10:30pm 11.8 2.6 6.3 69 2.6 W 44 61 24 33 1006.3 1006.3 3.0
22/10:16pm 11.9 2.7 6.4 69 2.6 WNW 44 65 24 35 1006.1 1006.1 3.0
22/10:00pm 12.1 1.7 5.9 66 2.9 WNW 50 63 27 34 1005.8 1005.8 3.0
22/09:52pm 12.2 2.9 6.1 66 2.9 WNW 44 63 24 34 1005.5 1005.5 3.0
22/09:30pm 11.9 3.3 6.4 69 2.6 WNW 41 54 22 29 1005.3 1005.3 3.0
22/09:07pm 12.0 3.0 6.5 69 2.6 WNW 43 61 23 33 1005.1 1005.1 3.0
22/09:00pm 12.1 2.8 5.9 66 2.9 W 44 59 24 32 1004.9 1004.9 3.0
22/08:30pm 12.0 1.6 4.3 59 3.5 W 48 63 26 34 1004.7 1004.7 3.0
22/08:21pm 12.0 2.4 4.5 60 3.4 W 44 63 24 34 1004.7 1004.7 3.0
22/08:00pm 11.9 3.5 5.5 65 3.0 WNW 39 54 21 29 1004.4 1004.4 3.0
22/07:30pm 10.3 1.1 6.2 76 1.9 WNW 44 80 24 43 1004.2 1004.2 3.0
22/07:00pm 11.3 2.6 6.2 71 2.4 W 41 56 22 30 1003.6 1003.6 2.8
22/06:46pm 10.9 0.6 6.5 74 2.1 W 50 69 27 37 1003.4 1003.4 2.8
22/06:30pm 10.4 -0.7 6.3 76 1.9 WNW 54 93 29 50 1003.2 1003.2 2.8
22/06:24pm 10.0 1.5 7.1 82 1.4 WNW 41 93 22 50 1003.3 1003.3 2.6
22/06:23pm 10.6 2.6 7.5 81 1.5 WNW 39 67 21 36 1003.4 1003.4 2.6
22/06:00pm 12.6 4.2 7.5 71 2.5 WNW 41 56 22 30 1002.5 1002.5 1.8
22/05:30pm 11.7 4.0 8.7 82 1.5 WNW 39 56 21 30 1001.9 1001.9 1.8
22/05:16pm 11.1 3.1 8.9 86 1.1 W 41 59 22 32 1001.8 1001.8 1.8
22/05:02pm 10.8 1.6 8.1 83 1.3 WNW 46 63 25 34 1002.1 1002.1 1.2
22/05:00pm 12.0 2.8 7.9 76 2.0 WNW 46 61 25 33 1002.0 1002.0 0.4
22/04:49pm 12.9 4.5 8.9 76 2.0 NW 43 61 23 33 1001.2 1001.2 0.4
22/04:30pm 12.9 3.8 8.3 73 2.3 WNW 46 59 25 32 1001.2 1001.2 0.4
22/04:00pm 12.1 3.6 8.5 78 1.8 WNW 43 56 23 30 1001.0 1001.0 0.4
22/03:55pm 11.9 2.9 8.7 81 1.6 WNW 46 65 25 35 1001.0 1001.0 0.4
22/03:44pm 11.8 1.2 8.4 80 1.7 WNW 54 76 29 41 1001.1 1001.1 0.4
22/03:36pm 12.4 3.8 9.0 80 1.7 NW 44 74 24 40 1001.2 1001.2 0.4

Latest Capital City Observations: Canberra | Sydney | Melbourne | Brisbane | Adelaide | Perth | Hobart | Darwin

Other Formats:

Comma delimited format used in spreadsheet applications
http://www.bom.gov.au/fwo/IDS60901/IDS60901.94672.axf

JavaScript Object Notation format (JSON) in row-major order
http://www.bom.gov.au/fwo/IDS60901/IDS60901.94672.json